Time;durP1;ratioP1;P1;durP2;ratioP2;P2;SDS_P1;SDS_P2;PMS_P1;PMS_P2;Temp;Humidity;BMP_temperature;BMP_pressure;BME280_temperature;BME280_humidity;BME280_pressure;Samples;Min_cycle;Max_cycle;Signal;HPM_P1;HPM_P2
2022/04/27 00:00:03;;;;;;;0.10;0.10;;;;;;;;;;4773395;30;20065;-96
2022/04/27 00:02:33;;;;;;;0.10;0.10;;;;;;;;;;4813364;29;20055;-95
2022/04/27 00:05:00;;;;;;;0.10;0.10;;;;;;;;;;4805569;29;20100;-94
2022/04/27 00:07:29;;;;;;;0.10;0.10;;;;;;;;;;4791474;29;20034;-95
2022/04/27 00:09:55;;;;;;;0.10;0.10;;;;;;;;;;4791493;29;20137;-94
2022/04/27 00:12:21;;;;;;;0.10;0.10;;;;;;;;;;4778559;29;20060;-94
2022/04/27 00:14:50;;;;;;;0.10;0.10;;;;;;;;;;4773376;30;20055;-96
2022/04/27 00:17:25;;;;;;;0.20;0.20;;;;;;;;;;4814240;29;20063;-96
2022/04/27 00:19:56;;;;;;;0.10;0.10;;;;;;;;;;4792349;29;20046;-96
2022/04/27 00:22:26;;;;;;;0.13;0.13;;;;;;;;;;4790149;29;20105;-94
2022/04/27 00:25:04;;;;;;;0.10;0.10;;;;;;;;;;4788171;29;20059;-96
2022/04/27 00:27:31;;;;;;;0.10;0.10;;;;;;;;;;4772337;30;20063;-95
2022/04/27 00:29:57;;;;;;;0.10;0.10;;;;;;;;;;4772429;30;20104;-95
2022/04/27 00:32:24;;;;;;;0.10;0.10;;;;;;;;;;4787473;29;20447;-94
2022/04/27 00:34:50;;;;;;;0.10;0.10;;;;;;;;;;4772065;30;20519;-94
2022/04/27 00:37:17;;;;;;;0.10;0.10;;;;;;;;;;4787296;29;20051;-93
2022/04/27 00:39:43;;;;;;;0.10;0.10;;;;;;;;;;4771900;30;20051;-94
2022/04/27 00:42:15;;;;;;;0.10;0.10;;;;;;;;;;4772030;30;20138;-93
2022/04/27 00:44:43;;;;;;;0.10;0.10;;;;;;;;;;4773547;29;20480;-93
2022/04/27 00:47:10;;;;;;;0.10;0.10;;;;;;;;;;4790196;29;20039;-93
2022/04/27 00:49:36;;;;;;;0.10;0.10;;;;;;;;;;4790094;29;20065;-94
2022/04/27 00:52:02;;;;;;;0.10;0.10;;;;;;;;;;4790069;29;20547;-94
2022/04/27 00:54:28;;;;;;;0.10;0.10;;;;;;;;;;4783961;29;20047;-94
2022/04/27 00:56:54;;;;;;;0.10;0.10;;;;;;;;;;4772405;30;20043;-93
2022/04/27 00:59:20;;;;;;;0.10;0.10;;;;;;;;;;4786881;29;20043;-94
2022/04/27 01:01:47;;;;;;;0.10;0.10;;;;;;;;;;4772047;30;21025;-94
2022/04/27 01:04:13;;;;;;;0.10;0.10;;;;;;;;;;4780741;30;20512;-93
2022/04/27 01:06:39;;;;;;;0.10;0.10;;;;;;;;;;4786416;29;20046;-94
2022/04/27 01:09:05;;;;;;;0.10;0.10;;;;;;;;;;4786996;29;20043;-94
2022/04/27 01:11:32;;;;;;;0.10;0.10;;;;;;;;;;4786642;29;20378;-94
2022/04/27 01:13:58;;;;;;;0.10;0.10;;;;;;;;;;4787520;29;20057;-93
2022/04/27 01:16:24;;;;;;;0.10;0.10;;;;;;;;;;4790725;29;20137;-94
2022/04/27 01:18:50;;;;;;;0.10;0.10;;;;;;;;;;4790192;29;20049;-94
2022/04/27 01:21:16;;;;;;;0.10;0.10;;;;;;;;;;4789412;29;20043;-93
2022/04/27 01:23:42;;;;;;;0.10;0.10;;;;;;;;;;4791039;29;20418;-93
2022/04/27 01:26:08;;;;;;;0.10;0.10;;;;;;;;;;4793071;29;20061;-93
2022/04/27 01:28:35;;;;;;;0.10;0.10;;;;;;;;;;4793082;29;20415;-93
2022/04/27 01:31:05;;;;;;;0.10;0.10;;;;;;;;;;4785313;29;20074;-93
2022/04/27 01:33:34;;;;;;;0.20;0.20;;;;;;;;;;4790218;29;20043;-93
2022/04/27 01:36:00;;;;;;;0.10;0.10;;;;;;;;;;4774943;29;20055;-94
2022/04/27 01:38:28;;;;;;;0.10;0.10;;;;;;;;;;4775130;29;20051;-94
2022/04/27 01:40:55;;;;;;;0.10;0.10;;;;;;;;;;4788666;29;20505;-94
2022/04/27 01:43:24;;;;;;;0.10;0.10;;;;;;;;;;4778692;29;20074;-93
2022/04/27 01:45:50;;;;;;;0.20;0.20;;;;;;;;;;4774952;29;20062;-94
2022/04/27 01:54:32;;;;;;;0.10;0.10;;;;;;;;;;4975944;24;20142;-96
2022/04/27 01:57:00;;;;;;;0.10;0.10;;;;;;;;;;4812514;29;20069;-90
2022/04/27 01:59:25;;;;;;;0.10;0.10;;;;;;;;;;4796981;29;20141;-95
2022/04/27 02:01:58;;;;;;;0.10;0.10;;;;;;;;;;4792231;29;20046;-96
2022/04/27 02:04:25;;;;;;;0.10;0.10;;;;;;;;;;4778038;29;20043;-93
2022/04/27 02:07:04;;;;;;;0.10;0.10;;;;;;;;;;4792965;29;20043;-96
2022/04/27 02:09:30;;;;;;;0.10;0.10;;;;;;;;;;4790223;29;20471;-95
2022/04/27 02:11:56;;;;;;;0.10;0.10;;;;;;;;;;4792377;29;20130;-96
2022/04/27 02:14:25;;;;;;;0.10;0.10;;;;;;;;;;4806502;29;20049;-93
2022/04/27 02:16:52;;;;;;;0.10;0.10;;;;;;;;;;4810273;29;20050;-96
2022/04/27 02:19:21;;;;;;;0.15;0.15;;;;;;;;;;4810781;29;20047;-96
2022/04/27 02:21:47;;;;;;;0.10;0.10;;;;;;;;;;4810236;29;20042;-96
2022/04/27 02:24:13;;;;;;;0.10;0.10;;;;;;;;;;4807157;29;20492;-95
2022/04/27 02:26:41;;;;;;;0.10;0.10;;;;;;;;;;4792409;29;20047;-96
2022/04/27 02:29:08;;;;;;;0.10;0.10;;;;;;;;;;4792250;29;20078;-95
2022/04/27 02:31:34;;;;;;;0.10;0.10;;;;;;;;;;4792391;29;20050;-96
2022/04/27 02:34:01;;;;;;;0.10;0.10;;;;;;;;;;4792316;29;20050;-95
2022/04/27 02:36:27;;;;;;;0.10;0.10;;;;;;;;;;4792374;29;20050;-96
2022/04/27 02:38:53;;;;;;;0.10;0.10;;;;;;;;;;4794483;29;20046;-95
2022/04/27 02:41:20;;;;;;;0.10;0.10;;;;;;;;;;4795865;29;20103;-96
2022/04/27 02:43:46;;;;;;;0.10;0.10;;;;;;;;;;4795432;29;20487;-94
2022/04/27 02:46:12;;;;;;;0.10;0.10;;;;;;;;;;4810848;29;20103;-93
2022/04/27 02:51:48;;;;;;;0.10;0.10;;;;;;;;;;4810466;29;20047;-93
2022/04/27 02:54:09;;;;;;;0.10;0.10;;;;;;;;;;4825248;29;20065;-94
2022/04/27 02:56:36;;;;;;;0.10;0.10;;;;;;;;;;4810480;29;20375;-94
2022/04/27 02:59:02;;;;;;;0.10;0.10;;;;;;;;;;4810395;29;20137;-96
2022/04/27 03:01:28;;;;;;;0.10;0.10;;;;;;;;;;4810384;29;20097;-94
2022/04/27 03:03:54;;;;;;;0.10;0.10;;;;;;;;;;4810058;29;20046;-95
2022/04/27 03:06:20;;;;;;;0.10;0.10;;;;;;;;;;4810499;29;20125;-94
2022/04/27 03:08:46;;;;;;;0.10;0.10;;;;;;;;;;4809916;29;20088;-95
2022/04/27 03:11:12;;;;;;;0.10;0.10;;;;;;;;;;4809628;29;20053;-95
2022/04/27 03:13:38;;;;;;;0.10;0.10;;;;;;;;;;4810189;29;20444;-95
2022/04/27 03:16:04;;;;;;;0.10;0.10;;;;;;;;;;4810462;29;20069;-96
2022/04/27 03:18:31;;;;;;;0.10;0.10;;;;;;;;;;4812004;29;20574;-96
2022/04/27 03:20:58;;;;;;;0.10;0.10;;;;;;;;;;4813369;29;20084;-96
2022/04/27 03:23:25;;;;;;;0.10;0.10;;;;;;;;;;4819352;29;20075;-93
2022/04/27 03:25:51;;;;;;;0.10;0.10;;;;;;;;;;4832141;29;20054;-93
2022/04/27 03:28:19;;;;;;;0.10;0.10;;;;;;;;;;4831949;29;20047;-94
2022/04/27 03:30:45;;;;;;;0.10;0.10;;;;;;;;;;4816820;29;20050;-95
2022/04/27 03:33:11;;;;;;;0.10;0.10;;;;;;;;;;4813807;29;20050;-93
2022/04/27 03:35:40;;;;;;;0.10;0.10;;;;;;;;;;4831875;29;20049;-96
2022/04/27 03:38:08;;;;;;;0.10;0.10;;;;;;;;;;4830553;29;20081;-93
2022/04/27 03:40:47;;;;;;;0.10;0.10;;;;;;;;;;4827475;29;20038;-96
2022/04/27 03:43:16;;;;;;;0.10;0.10;;;;;;;;;;4810147;29;20046;-96
2022/04/27 03:45:42;;;;;;;0.10;0.10;;;;;;;;;;4809167;29;20046;-96
2022/04/27 03:48:11;;;;;;;0.10;0.10;;;;;;;;;;4809049;29;20103;-95
2022/04/27 03:50:37;;;;;;;0.10;0.10;;;;;;;;;;4797201;29;20034;-95
2022/04/27 03:53:03;;;;;;;0.10;0.10;;;;;;;;;;4798852;29;20239;-95
2022/04/27 03:55:33;;;;;;;0.10;0.10;;;;;;;;;;4790901;29;20206;-94
2022/04/27 03:57:59;;;;;;;0.10;0.10;;;;;;;;;;4791423;29;20069;-93
2022/04/27 04:00:25;;;;;;;0.10;0.10;;;;;;;;;;4805914;29;20053;-95
2022/04/27 04:02:51;;;;;;;0.10;0.10;;;;;;;;;;4790928;29;20236;-96
2022/04/27 04:05:18;;;;;;;0.10;0.10;;;;;;;;;;4790432;29;20448;-95
2022/04/27 04:07:44;;;;;;;0.10;0.10;;;;;;;;;;4802176;29;20042;-96
2022/04/27 04:10:10;;;;;;;0.10;0.10;;;;;;;;;;4794402;29;20098;-93
2022/04/27 04:12:36;;;;;;;0.10;0.10;;;;;;;;;;4793704;29;20046;-94
2022/04/27 04:15:02;;;;;;;0.10;0.10;;;;;;;;;;4793233;29;20090;-95
2022/04/27 04:17:28;;;;;;;0.10;0.10;;;;;;;;;;4790420;29;20066;-94
2022/04/27 04:19:54;;;;;;;0.10;0.10;;;;;;;;;;4790607;29;20143;-94
2022/04/27 04:22:20;;;;;;;0.10;0.10;;;;;;;;;;4790561;29;20047;-95
2022/04/27 04:30:18;;;;;;;0.10;0.10;;;;;;;;;;4795440;29;20062;-96
2022/04/27 04:32:45;;;;;;;0.10;0.10;;;;;;;;;;4779433;29;20042;-96
2022/04/27 04:35:11;;;;;;;0.10;0.10;;;;;;;;;;4794131;29;20061;-96
2022/04/27 04:37:37;;;;;;;0.10;0.10;;;;;;;;;;4778682;29;20046;-96
2022/04/27 04:40:03;;;;;;;0.10;0.10;;;;;;;;;;4782004;29;20054;-94
2022/04/27 04:42:29;;;;;;;0.10;0.10;;;;;;;;;;4778817;29;20270;-96
2022/04/27 04:44:55;;;;;;;0.10;0.10;;;;;;;;;;4778260;29;20042;-96
2022/04/27 04:47:22;;;;;;;0.10;0.10;;;;;;;;;;4781043;29;20046;-93
2022/04/27 04:49:48;;;;;;;0.10;0.10;;;;;;;;;;4808180;29;20335;-95
2022/04/27 04:52:14;;;;;;;0.20;0.20;;;;;;;;;;4808223;29;20122;-95
2022/04/27 04:54:40;;;;;;;0.10;0.10;;;;;;;;;;4807632;29;20098;-95
2022/04/27 04:57:06;;;;;;;0.10;0.10;;;;;;;;;;4807273;29;20046;-96
2022/04/27 04:59:32;;;;;;;0.10;0.10;;;;;;;;;;4808111;29;20049;-95
2022/04/27 05:01:58;;;;;;;0.10;0.10;;;;;;;;;;4807978;29;20047;-93
2022/04/27 05:04:24;;;;;;;0.10;0.10;;;;;;;;;;4801104;29;20054;-92
2022/04/27 05:06:50;;;;;;;0.10;0.10;;;;;;;;;;4789903;29;20079;-93
2022/04/27 05:09:16;;;;;;;0.10;0.10;;;;;;;;;;4790377;29;20163;-93
2022/04/27 05:11:43;;;;;;;0.10;0.10;;;;;;;;;;4775411;29;20414;-95
2022/04/27 05:14:09;;;;;;;0.10;0.10;;;;;;;;;;4775541;29;20088;-95
2022/04/27 05:16:36;;;;;;;0.10;0.10;;;;;;;;;;4775078;29;20057;-96
2022/04/27 05:19:03;;;;;;;0.10;0.10;;;;;;;;;;4775006;29;20043;-94
2022/04/27 05:21:29;;;;;;;0.10;0.10;;;;;;;;;;4773170;29;20057;-95
2022/04/27 05:23:55;;;;;;;0.10;0.10;;;;;;;;;;4757519;29;20100;-96
2022/04/27 05:26:21;;;;;;;0.10;0.10;;;;;;;;;;4771591;29;20055;-95
2022/04/27 05:34:16;;;;;;;0.10;0.10;;;;;;;;;;4788276;29;20230;-94
2022/04/27 05:36:42;;;;;;;0.10;0.10;;;;;;;;;;4770855;29;20176;-94
2022/04/27 05:39:08;;;;;;;0.10;0.10;;;;;;;;;;4770880;29;20145;-93
2022/04/27 05:41:38;;;;;;;0.10;0.10;;;;;;;;;;4770883;29;20063;-94
2022/04/27 05:44:12;;;;;;;0.10;0.10;;;;;;;;;;4770929;29;20515;-95
2022/04/27 05:46:38;;;;;;;0.10;0.10;;;;;;;;;;4803091;29;20054;-94
2022/04/27 05:49:04;;;;;;;0.10;0.10;;;;;;;;;;4774251;29;20054;-92
2022/04/27 05:51:30;;;;;;;0.10;0.10;;;;;;;;;;4773697;29;20432;-96
2022/04/27 05:53:56;;;;;;;0.10;0.10;;;;;;;;;;4773274;29;20054;-94
2022/04/27 05:56:24;;;;;;;0.10;0.10;;;;;;;;;;4774573;29;20054;-93
2022/04/27 05:58:50;;;;;;;0.10;0.10;;;;;;;;;;4789244;29;20078;-94
2022/04/27 06:01:16;;;;;;;0.10;0.10;;;;;;;;;;4778396;29;20104;-94
2022/04/27 06:03:42;;;;;;;0.20;0.20;;;;;;;;;;4781080;29;20139;-94
2022/04/27 06:06:08;;;;;;;0.10;0.10;;;;;;;;;;4778767;29;20142;-93
2022/04/27 06:08:35;;;;;;;0.10;0.10;;;;;;;;;;4779421;29;20596;-93
2022/04/27 06:11:02;;;;;;;0.10;0.10;;;;;;;;;;4793709;29;20514;-95
2022/04/27 06:13:29;;;;;;;0.10;0.10;;;;;;;;;;4778254;29;20117;-93
2022/04/27 06:15:57;;;;;;;0.10;0.10;;;;;;;;;;4775029;29;20042;-94
2022/04/27 06:18:23;;;;;;;0.10;0.10;;;;;;;;;;4787833;29;20053;-92
2022/04/27 06:20:49;;;;;;;0.10;0.10;;;;;;;;;;4786854;29;20133;-91
2022/04/27 06:23:15;;;;;;;0.10;0.10;;;;;;;;;;4771685;29;20047;-92
2022/04/27 06:25:41;;;;;;;0.10;0.10;;;;;;;;;;4786501;29;20407;-90
2022/04/27 06:28:10;;;;;;;0.10;0.10;;;;;;;;;;4787085;29;20125;-92
2022/04/27 06:30:36;;;;;;;0.10;0.10;;;;;;;;;;4771570;29;20138;-89
2022/04/27 06:33:02;;;;;;;0.10;0.10;;;;;;;;;;4783707;29;20151;-89
2022/04/27 06:35:28;;;;;;;0.10;0.10;;;;;;;;;;4771009;29;20135;-90
2022/04/27 06:37:54;;;;;;;0.10;0.10;;;;;;;;;;4770765;29;20063;-90
2022/04/27 06:40:20;;;;;;;0.10;0.10;;;;;;;;;;4771043;29;20146;-88
2022/04/27 06:42:47;;;;;;;0.10;0.10;;;;;;;;;;4771548;29;20057;-91
2022/04/27 06:45:13;;;;;;;0.10;0.10;;;;;;;;;;4788520;29;20049;-91
2022/04/27 06:47:39;;;;;;;0.10;0.10;;;;;;;;;;4793405;29;20058;-90
2022/04/27 06:50:06;;;;;;;0.20;0.20;;;;;;;;;;4792689;29;20121;-89
2022/04/27 06:52:32;;;;;;;0.00;0.00;;;;;;;;;;4776379;29;20042;-89
2022/04/27 06:54:58;;;;;;;0.10;0.10;;;;;;;;;;4790432;29;20069;-89
2022/04/27 06:57:24;;;;;;;0.10;0.10;;;;;;;;;;4804590;29;20125;-89
2022/04/27 06:59:50;;;;;;;0.10;0.10;;;;;;;;;;4793146;29;20049;-89
2022/04/27 07:02:16;;;;;;;0.10;0.10;;;;;;;;;;4790524;29;20050;-89
2022/04/27 07:04:48;;;;;;;0.10;0.10;;;;;;;;;;4788089;29;20183;-89
2022/04/27 07:07:14;;;;;;;0.10;0.10;;;;;;;;;;4790406;29;20107;-88
2022/04/27 07:09:40;;;;;;;0.10;0.10;;;;;;;;;;4772206;29;20042;-87
2022/04/27 07:12:06;;;;;;;0.10;0.10;;;;;;;;;;4786648;29;20539;-89
2022/04/27 07:14:32;;;;;;;0.10;0.10;;;;;;;;;;4789934;29;20134;-92
2022/04/27 07:16:58;;;;;;;0.10;0.10;;;;;;;;;;4772881;29;20502;-91
2022/04/27 07:19:24;;;;;;;0.10;0.10;;;;;;;;;;4774582;29;20046;-89
2022/04/27 07:21:50;;;;;;;0.10;0.10;;;;;;;;;;4772258;29;20077;-89
2022/04/27 07:24:16;;;;;;;0.10;0.10;;;;;;;;;;4787264;29;20042;-88
2022/04/27 07:26:42;;;;;;;0.10;0.10;;;;;;;;;;4787240;29;20042;-90
2022/04/27 07:29:09;;;;;;;0.10;0.10;;;;;;;;;;4772822;29;20065;-89
2022/04/27 07:31:35;;;;;;;0.10;0.10;;;;;;;;;;4798376;29;20049;-89
2022/04/27 07:34:02;;;;;;;0.10;0.10;;;;;;;;;;4791290;29;20129;-92
2022/04/27 07:36:28;;;;;;;0.10;0.10;;;;;;;;;;4798305;29;20050;-94
2022/04/27 07:38:54;;;;;;;0.10;0.10;;;;;;;;;;4782357;29;20042;-91
2022/04/27 07:41:20;;;;;;;0.10;0.10;;;;;;;;;;4783767;29;20057;-91
2022/04/27 07:43:46;;;;;;;0.10;0.10;;;;;;;;;;4802817;29;20038;-92
2022/04/27 07:46:13;;;;;;;0.10;0.10;;;;;;;;;;4790631;29;20030;-92
2022/04/27 07:48:39;;;;;;;0.10;0.10;;;;;;;;;;4784805;29;20395;-91
2022/04/27 07:51:06;;;;;;;0.10;0.10;;;;;;;;;;4801374;29;20053;-91
2022/04/27 07:53:32;;;;;;;0.10;0.10;;;;;;;;;;4798501;29;20053;-91
2022/04/27 07:55:58;;;;;;;0.10;0.10;;;;;;;;;;4797143;29;20062;-92
2022/04/27 07:58:24;;;;;;;0.10;0.10;;;;;;;;;;4779231;29;20502;-92
2022/04/27 08:00:50;;;;;;;0.10;0.10;;;;;;;;;;4794031;29;20042;-92
2022/04/27 08:03:16;;;;;;;0.10;0.10;;;;;;;;;;4779043;29;20449;-91
2022/04/27 08:05:42;;;;;;;0.10;0.10;;;;;;;;;;4793682;29;20103;-92
2022/04/27 08:08:08;;;;;;;0.20;0.20;;;;;;;;;;4792884;29;20046;-92
2022/04/27 08:10:34;;;;;;;0.10;0.10;;;;;;;;;;4778495;29;20534;-92
2022/04/27 08:13:00;;;;;;;0.10;0.10;;;;;;;;;;4778693;29;20122;-92
2022/04/27 08:15:26;;;;;;;0.10;0.10;;;;;;;;;;4778589;29;20046;-91
2022/04/27 08:18:10;;;;;;;0.10;0.10;;;;;;;;;;4778486;29;20070;-92
2022/04/27 08:23:22;;;;;;;0.10;0.10;;;;;;;;;;4795877;29;20368;-92
2022/04/27 08:25:48;;;;;;;0.10;0.10;;;;;;;;;;4778497;29;20080;-91
2022/04/27 08:28:15;;;;;;;0.10;0.10;;;;;;;;;;4778608;29;20106;-92
2022/04/27 08:30:41;;;;;;;0.10;0.10;;;;;;;;;;4793608;29;20099;-91
2022/04/27 08:33:07;;;;;;;0.10;0.10;;;;;;;;;;4793179;29;20073;-91
2022/04/27 08:35:33;;;;;;;0.10;0.10;;;;;;;;;;4778285;29;20042;-92
2022/04/27 08:38:00;;;;;;;0.10;0.10;;;;;;;;;;4778576;29;20046;-92
2022/04/27 08:40:26;;;;;;;0.10;0.10;;;;;;;;;;4778097;29;20046;-91
2022/04/27 08:42:52;;;;;;;0.10;0.10;;;;;;;;;;4778195;29;20050;-91
2022/04/27 08:45:18;;;;;;;0.10;0.10;;;;;;;;;;4793155;29;20082;-92
2022/04/27 08:47:46;;;;;;;0.10;0.10;;;;;;;;;;4793261;29;20046;-92
2022/04/27 08:50:15;;;;;;;0.10;0.10;;;;;;;;;;4793026;29;20054;-92
2022/04/27 08:52:42;;;;;;;0.10;0.10;;;;;;;;;;4777987;29;20110;-92
2022/04/27 08:55:08;;;;;;;0.10;0.10;;;;;;;;;;4792793;29;20070;-92
2022/04/27 08:57:34;;;;;;;0.10;0.10;;;;;;;;;;4794129;29;20054;-92
2022/04/27 09:00:03;;;;;;;0.10;0.10;;;;;;;;;;4779462;29;20050;-92
2022/04/27 09:02:29;;;;;;;0.10;0.10;;;;;;;;;;4792827;29;20042;-92
2022/04/27 09:05:14;;;;;;;0.10;0.10;;;;;;;;;;4792693;29;20076;-92
2022/04/27 09:07:50;;;;;;;0.10;0.10;;;;;;;;;;4763799;29;20210;-92
2022/04/27 09:10:18;;;;;;;0.10;0.10;;;;;;;;;;4778064;29;20483;-92
2022/04/27 09:12:44;;;;;;;0.10;0.10;;;;;;;;;;4777562;29;20042;-92
2022/04/27 09:15:10;;;;;;;0.10;0.10;;;;;;;;;;4808164;29;20057;-92
2022/04/27 09:23:06;;;;;;;0.10;0.10;;;;;;;;;;4811214;29;20050;-91
2022/04/27 09:25:36;;;;;;;0.10;0.10;;;;;;;;;;4796267;29;20042;-92
2022/04/27 09:28:02;;;;;;;0.10;0.10;;;;;;;;;;4796410;29;20146;-92
2022/04/27 09:30:29;;;;;;;0.10;0.10;;;;;;;;;;4781587;29;20050;-92
2022/04/27 09:32:55;;;;;;;0.10;0.10;;;;;;;;;;4795985;29;20126;-92
2022/04/27 09:35:32;;;;;;;0.10;0.10;;;;;;;;;;4781745;29;20129;-91
2022/04/27 09:37:59;;;;;;;0.10;0.10;;;;;;;;;;4781290;29;20095;-92
2022/04/27 09:40:25;;;;;;;0.10;0.10;;;;;;;;;;4796314;29;20046;-92
2022/04/27 09:42:59;;;;;;;0.10;0.10;;;;;;;;;;4781436;29;20141;-91
2022/04/27 09:45:25;;;;;;;0.10;0.10;;;;;;;;;;4781961;29;20043;-92
2022/04/27 09:47:58;;;;;;;0.10;0.10;;;;;;;;;;4781318;29;20249;-92
2022/04/27 09:50:24;;;;;;;0.10;0.10;;;;;;;;;;4796330;29;20129;-92
2022/04/27 09:52:50;;;;;;;0.10;0.10;;;;;;;;;;4795983;29;20451;-92
2022/04/27 09:55:16;;;;;;;0.10;0.10;;;;;;;;;;4795753;29;20058;-92
2022/04/27 09:57:42;;;;;;;0.10;0.10;;;;;;;;;;4795778;29;20057;-92
2022/04/27 10:00:09;;;;;;;0.10;0.10;;;;;;;;;;4795695;29;20042;-92
2022/04/27 10:02:35;;;;;;;0.10;0.10;;;;;;;;;;4795813;29;20058;-92
2022/04/27 10:05:01;;;;;;;0.10;0.10;;;;;;;;;;4780734;29;20559;-92
2022/04/27 10:07:27;;;;;;;0.10;0.10;;;;;;;;;;4780744;29;20574;-92
2022/04/27 10:09:54;;;;;;;0.10;0.10;;;;;;;;;;4780946;29;20133;-92
2022/04/27 10:12:22;;;;;;;0.10;0.10;;;;;;;;;;4795687;29;20082;-92
2022/04/27 10:14:48;;;;;;;0.10;0.10;;;;;;;;;;4780775;29;20046;-92
2022/04/27 10:17:15;;;;;;;0.10;0.10;;;;;;;;;;4795762;29;20145;-91
2022/04/27 10:19:47;;;;;;;0.10;0.10;;;;;;;;;;4781455;29;20049;-91
2022/04/27 10:22:27;;;;;;;0.10;0.10;;;;;;;;;;4797333;29;20102;-93
2022/04/27 10:24:53;;;;;;;0.10;0.10;;;;;;;;;;4781519;29;20093;-92
2022/04/27 10:27:21;;;;;;;0.30;0.30;;;;;;;;;;4799244;29;20042;-91
2022/04/27 10:29:59;;;;;;;0.10;0.10;;;;;;;;;;4782848;29;20400;-90
2022/04/27 10:32:35;;;;;;;0.10;0.10;;;;;;;;;;4780856;29;20046;-91
2022/04/27 10:35:19;;;;;;;0.10;0.10;;;;;;;;;;4795398;29;20093;-92
2022/04/27 10:38:02;;;;;;;0.10;0.10;;;;;;;;;;4795065;29;20053;-91
2022/04/27 10:40:29;;;;;;;0.10;0.10;;;;;;;;;;4794908;29;20073;-91
2022/04/27 10:43:01;;;;;;;0.10;0.10;;;;;;;;;;4794915;29;20110;-92
2022/04/27 10:45:27;;;;;;;0.10;0.10;;;;;;;;;;4795008;29;20432;-93
2022/04/27 10:47:53;;;;;;;0.10;0.10;;;;;;;;;;4795185;29;20439;-91
2022/04/27 10:50:20;;;;;;;0.10;0.10;;;;;;;;;;4794967;29;20387;-91
2022/04/27 10:52:56;;;;;;;0.40;0.40;;;;;;;;;;4779943;29;20508;-92
2022/04/27 10:55:41;;;;;;;0.10;0.10;;;;;;;;;;4794837;29;20152;-91
2022/04/27 10:58:13;;;;;;;0.10;0.10;;;;;;;;;;4780042;29;20132;-92
2022/04/27 11:00:58;;;;;;;0.17;0.17;;;;;;;;;;4795097;29;20046;-91
2022/04/27 11:03:25;;;;;;;0.10;0.10;;;;;;;;;;4794838;29;20146;-92
2022/04/27 11:05:51;;;;;;;0.20;0.20;;;;;;;;;;4779855;29;20042;-92
2022/04/27 11:08:23;;;;;;;0.10;0.10;;;;;;;;;;4779583;29;20046;-91
2022/04/27 11:10:50;;;;;;;0.10;0.10;;;;;;;;;;4794615;29;20046;-91
2022/04/27 11:13:16;;;;;;;0.20;0.20;;;;;;;;;;4794588;29;20046;-91
2022/04/27 11:15:42;;;;;;;0.10;0.10;;;;;;;;;;4779662;29;20050;-91
2022/04/27 11:18:08;;;;;;;0.10;0.10;;;;;;;;;;4794645;29;20042;-91
2022/04/27 11:20:35;;;;;;;0.10;0.10;;;;;;;;;;4809125;29;20081;-89
2022/04/27 11:23:03;;;;;;;0.10;0.10;;;;;;;;;;4795547;29;20057;-89
2022/04/27 11:25:30;;;;;;;0.10;0.10;;;;;;;;;;4779404;29;20061;-90
2022/04/27 11:27:56;;;;;;;0.13;0.13;;;;;;;;;;4779277;29;20133;-90
2022/04/27 11:30:23;;;;;;;0.10;0.10;;;;;;;;;;4793713;29;20049;-90
2022/04/27 11:32:49;;;;;;;0.10;0.10;;;;;;;;;;4793708;29;20114;-91
2022/04/27 11:35:15;;;;;;;0.10;0.10;;;;;;;;;;4779195;29;20185;-93
2022/04/27 11:37:41;;;;;;;0.20;0.20;;;;;;;;;;4779220;29;20392;-89
2022/04/27 11:40:17;;;;;;;0.10;0.10;;;;;;;;;;4794880;29;20081;-90
2022/04/27 11:42:47;;;;;;;0.10;0.10;;;;;;;;;;4778872;29;20321;-91
2022/04/27 11:45:13;;;;;;;0.10;0.10;;;;;;;;;;4778473;29;20081;-88
2022/04/27 11:47:39;;;;;;;0.20;0.20;;;;;;;;;;4793621;29;20046;-89
2022/04/27 11:50:06;;;;;;;0.13;0.13;;;;;;;;;;4778568;29;20064;-89
2022/04/27 11:52:36;;;;;;;0.10;0.10;;;;;;;;;;4793442;29;20050;-89
2022/04/27 11:55:10;;;;;;;7.55;1.40;;;;;;;;;;4792942;29;20590;-89
2022/04/27 11:57:36;;;;;;;0.20;0.20;;;;;;;;;;4777197;29;20054;-88
2022/04/27 12:00:02;;;;;;;0.10;0.10;;;;;;;;;;4819531;29;20132;-88
2022/04/27 12:02:28;;;;;;;0.20;0.20;;;;;;;;;;4811064;29;20053;-88
2022/04/27 12:04:58;;;;;;;0.10;0.10;;;;;;;;;;4781697;29;20050;-90
2022/04/27 12:07:24;;;;;;;0.10;0.10;;;;;;;;;;4779539;29;20048;-88
2022/04/27 12:10:00;;;;;;;0.10;0.10;;;;;;;;;;4793945;29;20038;-88
2022/04/27 12:12:26;;;;;;;0.20;0.20;;;;;;;;;;4804652;29;20069;-90
2022/04/27 12:14:52;;;;;;;0.10;0.10;;;;;;;;;;4812318;29;20049;-90
2022/04/27 12:17:37;;;;;;;0.10;0.10;;;;;;;;;;4815095;29;20050;-89
2022/04/27 12:20:03;;;;;;;0.10;0.10;;;;;;;;;;4813406;29;20092;-89
2022/04/27 12:22:29;;;;;;;0.10;0.10;;;;;;;;;;4810705;29;20129;-89
2022/04/27 12:25:01;;;;;;;0.10;0.10;;;;;;;;;;4810775;29;20056;-91
2022/04/27 12:27:27;;;;;;;0.10;0.10;;;;;;;;;;4795996;29;20403;-88
2022/04/27 12:29:59;;;;;;;0.10;0.10;;;;;;;;;;4795331;29;20042;-88
2022/04/27 12:32:25;;;;;;;2.17;1.13;;;;;;;;;;4795161;29;20037;-88
2022/04/27 12:37:36;;;;;;;0.10;0.10;;;;;;;;;;4812726;29;20053;-89
2022/04/27 12:40:13;;;;;;;0.22;0.22;;;;;;;;;;4795782;29;20091;-89
2022/04/27 12:42:58;;;;;;;0.10;0.10;;;;;;;;;;4795532;29;20050;-90
2022/04/27 12:45:24;;;;;;;0.20;0.20;;;;;;;;;;4810275;29;20506;-89
2022/04/27 12:47:50;;;;;;;0.10;0.10;;;;;;;;;;4795233;29;20050;-89
2022/04/27 12:50:16;;;;;;;0.13;0.13;;;;;;;;;;4810345;29;20046;-89
2022/04/27 12:52:44;;;;;;;0.10;0.10;;;;;;;;;;4810355;29;20042;-89
2022/04/27 12:55:11;;;;;;;0.20;0.20;;;;;;;;;;4795316;29;20470;-90
2022/04/27 12:57:43;;;;;;;0.10;0.10;;;;;;;;;;4810443;29;20054;-92
2022/04/27 13:00:11;;;;;;;0.10;0.10;;;;;;;;;;4826301;29;20049;-92
2022/04/27 13:02:37;;;;;;;0.10;0.10;;;;;;;;;;4795768;29;20132;-95
2022/04/27 13:05:03;;;;;;;0.10;0.10;;;;;;;;;;4796013;29;20189;-92
2022/04/27 13:07:29;;;;;;;0.10;0.10;;;;;;;;;;4796175;29;20158;-92
2022/04/27 13:12:39;;;;;;;0.28;0.20;;;;;;;;;;4813020;29;20046;-91
2022/04/27 13:15:06;;;;;;;0.10;0.10;;;;;;;;;;4810837;29;20133;-92
2022/04/27 13:17:32;;;;;;;0.10;0.10;;;;;;;;;;4811060;29;20383;-92
2022/04/27 13:19:58;;;;;;;0.47;0.20;;;;;;;;;;4795800;29;20125;-91
2022/04/27 13:22:24;;;;;;;0.20;0.20;;;;;;;;;;4810521;29;20439;-91
2022/04/27 13:24:50;;;;;;;0.10;0.10;;;;;;;;;;4795416;29;20091;-91
2022/04/27 13:27:17;;;;;;;0.10;0.10;;;;;;;;;;4795733;29;20045;-91
2022/04/27 13:29:43;;;;;;;0.10;0.10;;;;;;;;;;4795793;29;20054;-91
2022/04/27 13:32:09;;;;;;;0.10;0.10;;;;;;;;;;4810442;29;20034;-91
2022/04/27 13:34:35;;;;;;;0.10;0.10;;;;;;;;;;4795499;29;20486;-92
2022/04/27 13:37:01;;;;;;;0.10;0.10;;;;;;;;;;4810632;29;20155;-91
2022/04/27 13:39:27;;;;;;;0.10;0.10;;;;;;;;;;4795532;29;20046;-91
2022/04/27 13:41:53;;;;;;;0.10;0.10;;;;;;;;;;4810622;29;20085;-92
2022/04/27 13:44:20;;;;;;;0.10;0.10;;;;;;;;;;4809987;29;20049;-90
2022/04/27 13:46:46;;;;;;;0.10;0.10;;;;;;;;;;4795093;29;20042;-90
2022/04/27 13:49:12;;;;;;;0.10;0.10;;;;;;;;;;4795199;29;20050;-91
2022/04/27 13:51:38;;;;;;;0.10;0.10;;;;;;;;;;4810026;29;20491;-91
2022/04/27 13:54:04;;;;;;;0.10;0.10;;;;;;;;;;4809833;29;20087;-90
2022/04/27 13:56:30;;;;;;;0.10;0.10;;;;;;;;;;4795224;29;20060;-90
2022/04/27 13:58:56;;;;;;;0.10;0.10;;;;;;;;;;4795073;29;20058;-90
2022/04/27 14:01:22;;;;;;;0.10;0.10;;;;;;;;;;4809761;29;20058;-90
2022/04/27 14:03:48;;;;;;;0.10;0.10;;;;;;;;;;4794595;29;20049;-90
2022/04/27 14:06:16;;;;;;;0.10;0.10;;;;;;;;;;4811031;29;20073;-90
2022/04/27 14:08:42;;;;;;;0.10;0.10;;;;;;;;;;4813330;29;20058;-89
2022/04/27 14:13:10;;;;;;;0.10;0.10;;;;;;;;;;4798571;29;20057;-90
2022/04/27 14:13:53;;;;;;;0.10;0.10;;;;;;;;;;4815393;29;20069;-89
2022/04/27 14:19:04;;;;;;;0.10;0.10;;;;;;;;;;4809726;29;20054;-90
2022/04/27 14:21:30;;;;;;;0.10;0.10;;;;;;;;;;4809679;29;20042;-90
2022/04/27 14:23:56;;;;;;;0.10;0.10;;;;;;;;;;4808966;29;20060;-89
2022/04/27 14:26:22;;;;;;;0.20;0.20;;;;;;;;;;4812806;29;20042;-89
2022/04/27 14:28:49;;;;;;;0.10;0.10;;;;;;;;;;4798087;29;20053;-89
2022/04/27 14:31:15;;;;;;;0.10;0.10;;;;;;;;;;4797834;29;20065;-89
2022/04/27 14:33:41;;;;;;;0.10;0.10;;;;;;;;;;4812800;29;20053;-91
2022/04/27 14:36:08;;;;;;;0.10;0.10;;;;;;;;;;4798269;29;20045;-91
2022/04/27 14:38:35;;;;;;;0.10;0.10;;;;;;;;;;4798365;29;20038;-91
2022/04/27 14:41:01;;;;;;;0.20;0.20;;;;;;;;;;4812865;29;20048;-91
2022/04/27 14:43:29;;;;;;;0.10;0.10;;;;;;;;;;4797894;29;20096;-91
2022/04/27 14:45:55;;;;;;;0.10;0.10;;;;;;;;;;4812700;29;20057;-90
2022/04/27 14:48:21;;;;;;;0.10;0.10;;;;;;;;;;4797666;29;20048;-90
2022/04/27 14:50:47;;;;;;;0.10;0.10;;;;;;;;;;4797610;29;20049;-90
2022/04/27 14:53:14;;;;;;;0.10;0.10;;;;;;;;;;4812533;29;20090;-91
2022/04/27 14:55:40;;;;;;;0.10;0.10;;;;;;;;;;4809596;29;20082;-90
2022/04/27 14:58:06;;;;;;;0.10;0.10;;;;;;;;;;4794720;29;20050;-91
2022/04/27 15:00:32;;;;;;;0.10;0.10;;;;;;;;;;4809153;29;20514;-89
2022/04/27 15:02:58;;;;;;;0.10;0.10;;;;;;;;;;4793854;29;20415;-89
2022/04/27 15:05:24;;;;;;;0.10;0.10;;;;;;;;;;4793902;29;20046;-89
2022/04/27 15:07:50;;;;;;;0.10;0.10;;;;;;;;;;4823839;29;20484;-90
2022/04/27 15:10:17;;;;;;;0.10;0.10;;;;;;;;;;4795138;29;20057;-90
2022/04/27 15:12:43;;;;;;;0.10;0.10;;;;;;;;;;4794405;29;20453;-90
2022/04/27 15:15:09;;;;;;;0.30;0.30;;;;;;;;;;4809066;29;20046;-89
2022/04/27 15:17:35;;;;;;;0.10;0.10;;;;;;;;;;4808543;29;20050;-91
2022/04/27 15:22:46;;;;;;;0.20;0.20;;;;;;;;;;4809686;29;20093;-90